createdAt,value
2023-04-05T00:11:17.692Z,46.20
2023-04-05T00:26:21.578Z,38.10
2023-04-05T00:41:24.189Z,43.20
2023-04-05T00:56:28.317Z,44.30
2023-04-05T01:11:33.572Z,43.50
2023-04-05T01:26:53.052Z,39.70
2023-04-05T01:42:01.218Z,43.40
2023-04-05T01:57:05.130Z,39.30
2023-04-05T02:12:07.687Z,36.10
2023-04-05T02:27:10.790Z,33.50
2023-04-05T02:42:13.594Z,31.30
2023-04-05T02:57:16.337Z,31.40
2023-04-05T03:12:19.254Z,29.10
2023-04-05T03:27:21.934Z,28.00
2023-04-05T03:42:24.908Z,28.70
2023-04-05T03:57:29.117Z,22.70
2023-04-05T04:12:31.790Z,23.60
2023-04-05T04:27:35.754Z,25.60
2023-04-05T04:42:38.860Z,26.40
2023-04-05T04:57:42.919Z,30.00
2023-04-05T05:12:45.867Z,22.80
2023-04-05T05:27:51.028Z,25.80
2023-04-05T05:42:53.686Z,35.50
2023-04-05T05:57:56.447Z,38.80
2023-04-05T06:12:59.091Z,47.40
2023-04-05T06:28:03.433Z,31.10
2023-04-05T06:43:06.362Z,30.70
2023-04-05T06:58:09.059Z,25.90
2023-04-05T07:28:14.247Z,27.20
2023-04-05T07:43:19.542Z,22.60
2023-04-05T07:58:22.699Z,25.70
2023-04-05T08:13:25.391Z,24.90
2023-04-05T08:28:27.977Z,18.60
2023-04-05T08:43:55.362Z,14.00
2023-04-05T08:59:07.230Z,11.10
2023-04-05T09:14:11.594Z,9.60
2023-04-05T09:29:30.162Z,10.10
2023-04-05T09:45:03.170Z,9.00
2023-04-05T10:00:16.766Z,10.30
2023-04-05T10:15:19.596Z,11.90
2023-04-05T10:45:28.862Z,12.30
2023-04-05T11:00:33.147Z,12.00
2023-04-05T11:15:36.471Z,14.70
2023-04-05T11:30:54.134Z,18.50
2023-04-05T11:45:56.884Z,12.60
2023-04-05T12:16:09.352Z,11.10
2023-04-05T12:31:12.116Z,13.30
2023-04-05T12:46:18.452Z,9.60
2023-04-05T13:01:21.074Z,15.10
2023-04-05T13:31:27.165Z,12.20
2023-04-05T13:46:29.913Z,9.40
2023-04-05T14:16:38.086Z,10.40
2023-04-05T14:31:40.847Z,8.60
2023-04-05T14:46:43.624Z,9.70
2023-04-05T15:01:47.385Z,9.10
2023-04-05T15:16:50.572Z,8.80
2023-04-05T15:31:53.561Z,13.20
2023-04-05T15:46:56.275Z,9.10
2023-04-05T16:17:04.413Z,12.80
2023-04-05T16:32:08.483Z,18.20
2023-04-05T16:47:11.066Z,29.50
2023-04-05T17:17:16.741Z,25.70
2023-04-05T17:32:19.326Z,17.20
2023-04-05T17:47:21.934Z,85.90
2023-04-05T18:02:24.714Z,76.30
2023-04-05T18:17:28.199Z,70.80
2023-04-05T18:32:31.357Z,50.80
2023-04-05T18:47:36.535Z,68.00
2023-04-05T19:02:39.358Z,151.20
2023-04-05T19:17:42.769Z,92.10
2023-04-05T19:32:45.735Z,47.50
2023-04-05T19:47:48.633Z,55.40
2023-04-05T20:02:51.942Z,56.50
2023-04-05T20:17:54.708Z,52.50
2023-04-05T20:32:57.733Z,48.90
2023-04-05T20:48:01.019Z,44.90
2023-04-05T21:03:04.014Z,67.50
2023-04-05T21:18:08.434Z,58.00
2023-04-05T21:33:12.205Z,77.00
2023-04-05T21:48:14.955Z,80.70
2023-04-05T22:03:17.579Z,59.20
2023-04-05T22:18:20.310Z,55.80
2023-04-05T22:33:22.973Z,65.10
2023-04-05T22:48:26.177Z,70.90
2023-04-05T23:03:28.760Z,73.60
2023-04-05T23:18:31.569Z,70.00
2023-04-05T23:33:34.460Z,73.00
2023-04-05T23:48:37.306Z,76.40
